Time;durP1;ratioP1;P1;durP2;ratioP2;P2;SDS_P1;SDS_P2;PMS_P1;PMS_P2;Temp;Humidity;BMP_temperature;BMP_pressure;BME280_temperature;BME280_humidity;BME280_pressure;Samples;Min_cycle;Max_cycle;Signal;HPM_P1;HPM_P2
2023/04/19 00:01:40;;;;;;;13.60;12.30;;;10.40;99.90;;;;;;6080947;23;20272;-67
2023/04/19 00:04:07;;;;;;;14.05;12.60;;;10.30;99.90;;;;;;6078521;23;20196;-68
2023/04/19 00:06:35;;;;;;;14.75;13.35;;;10.40;99.90;;;;;;6087959;23;20289;-67
2023/04/19 00:09:02;;;;;;;14.60;13.10;;;10.40;99.90;;;;;;6089626;23;20567;-68
2023/04/19 00:11:29;;;;;;;12.90;11.70;;;10.40;99.90;;;;;;6082708;23;20231;-68
2023/04/19 00:13:56;;;;;;;13.80;12.50;;;10.40;99.90;;;;;;6082851;23;20551;-68
2023/04/19 00:16:25;;;;;;;14.80;13.30;;;10.40;99.90;;;;;;6085513;23;20741;-67
2023/04/19 00:18:53;;;;;;;15.32;13.85;;;10.40;99.90;;;;;;6076957;23;20196;-67
2023/04/19 00:21:20;;;;;;;13.80;12.50;;;10.30;99.90;;;;;;6086081;23;20203;-67
2023/04/19 00:23:47;;;;;;;13.30;12.10;;;10.30;99.90;;;;;;6082204;23;20185;-67
2023/04/19 00:26:15;;;;;;;14.65;13.20;;;10.60;99.90;;;;;;6065805;23;20266;-67
2023/04/19 00:28:42;;;;;;;14.32;12.90;;;10.30;99.90;;;;;;6084722;23;20277;-67
2023/04/19 00:31:09;;;;;;;14.57;13.05;;;10.40;99.90;;;;;;6083707;23;20278;-67
2023/04/19 00:33:38;;;;;;;14.70;13.20;;;10.40;99.90;;;;;;6078901;23;20211;-67
2023/04/19 00:36:05;;;;;;;15.02;13.52;;;10.40;99.90;;;;;;6090068;23;20215;-67
2023/04/19 00:38:33;;;;;;;13.82;12.52;;;10.40;99.90;;;;;;6072127;23;20202;-67
2023/04/19 00:41:00;;;;;;;13.80;12.43;;;10.40;99.90;;;;;;6075015;23;20898;-67
2023/04/19 00:43:27;;;;;;;14.02;12.73;;;10.40;99.90;;;;;;6089811;23;20195;-67
2023/04/19 00:45:55;;;;;;;13.45;12.25;;;10.80;99.90;;;;;;6089609;23;20208;-69
2023/04/19 00:48:22;;;;;;;15.25;13.75;;;10.50;99.90;;;;;;6084954;23;20188;-67
2023/04/19 00:50:51;;;;;;;13.82;12.48;;;10.50;99.90;;;;;;6078579;23;20195;-67
2023/04/19 00:53:18;;;;;;;14.07;12.88;;;10.60;99.90;;;;;;6081428;23;20285;-67
2023/04/19 00:55:46;;;;;;;15.20;12.60;;;10.60;99.90;;;;;;6087719;23;20216;-67
2023/04/19 00:58:13;;;;;;;14.32;12.93;;;10.60;99.90;;;;;;6072573;23;20292;-67
2023/04/19 01:00:40;;;;;;;13.35;11.95;;;10.60;99.90;;;;;;6078329;23;20684;-67
2023/04/19 01:03:07;;;;;;;14.68;13.27;;;10.50;99.90;;;;;;6077610;23;20318;-67
2023/04/19 01:05:34;;;;;;;13.40;12.10;;;10.60;99.90;;;;;;6089862;23;20219;-67
2023/04/19 01:08:03;;;;;;;13.68;12.27;;;10.60;99.90;;;;;;6080084;23;20418;-67
2023/04/19 01:10:30;;;;;;;15.02;13.63;;;10.60;99.90;;;;;;6079646;23;20251;-67
2023/04/19 01:12:58;;;;;;;14.13;12.80;;;10.90;99.90;;;;;;6079647;23;20187;-68
2023/04/19 01:15:25;;;;;;;13.25;11.95;;;10.60;99.90;;;;;;6088043;23;20245;-67
2023/04/19 01:17:54;;;;;;;13.55;12.25;;;10.80;99.90;;;;;;6076591;23;20393;-67
2023/04/19 01:20:21;;;;;;;13.10;11.82;;;10.60;99.90;;;;;;6084787;23;20679;-67
2023/04/19 01:22:50;;;;;;;13.73;12.43;;;10.60;99.90;;;;;;6085174;23;20199;-67
2023/04/19 01:25:17;;;;;;;13.48;12.27;;;10.60;99.90;;;;;;6087290;23;20211;-67
2023/04/19 01:27:44;;;;;;;15.18;13.57;;;10.60;99.90;;;;;;6089592;23;20544;-68
2023/04/19 01:30:12;;;;;;;13.18;11.98;;;10.50;99.90;;;;;;6079595;23;20216;-68
2023/04/19 01:32:39;;;;;;;13.30;12.10;;;10.50;99.90;;;;;;6080166;23;20659;-67
2023/04/19 01:35:09;;;;;;;13.70;12.48;;;10.50;99.90;;;;;;6087330;23;20266;-69
2023/04/19 01:37:37;;;;;;;15.00;12.60;;;10.50;99.90;;;;;;6087424;23;20188;-67
2023/04/19 01:40:06;;;;;;;14.10;12.73;;;10.50;99.90;;;;;;6085769;23;20212;-67
2023/04/19 01:42:33;;;;;;;15.57;13.90;;;10.50;99.90;;;;;;6080295;23;20195;-68
2023/04/19 01:45:00;;;;;;;15.25;13.70;;;10.50;99.90;;;;;;6082057;23;20726;-68
2023/04/19 01:47:28;;;;;;;15.23;13.73;;;10.50;99.90;;;;;;6086318;23;20188;-68
2023/04/19 01:49:55;;;;;;;15.10;13.55;;;10.40;99.90;;;;;;6085926;23;20246;-68
2023/04/19 01:52:22;;;;;;;14.90;13.48;;;10.40;99.90;;;;;;6084563;23;20196;-67
2023/04/19 01:54:49;;;;;;;14.52;13.10;;;10.40;99.90;;;;;;6070552;23;20240;-67
2023/04/19 01:57:18;;;;;;;15.02;13.48;;;10.40;99.90;;;;;;6081513;23;20274;-67
2023/04/19 01:59:45;;;;;;;15.18;13.77;;;10.40;99.90;;;;;;6087704;23;20298;-67
2023/04/19 02:02:12;;;;;;;14.55;13.05;;;10.40;99.90;;;;;;6083860;23;20253;-67
2023/04/19 02:04:39;;;;;;;13.90;12.70;;;10.40;99.90;;;;;;6080469;23;20208;-67
2023/04/19 02:07:07;;;;;;;14.95;13.55;;;10.30;99.90;;;;;;6086562;23;20652;-68
2023/04/19 02:09:36;;;;;;;15.82;14.20;;;10.30;99.90;;;;;;6088204;23;20257;-68
2023/04/19 02:12:03;;;;;;;14.75;13.15;;;10.30;99.90;;;;;;6067301;23;20195;-68
2023/04/19 02:14:32;;;;;;;14.75;13.35;;;10.30;99.90;;;;;;6084146;23;20310;-67
2023/04/19 02:16:59;;;;;;;14.68;13.18;;;10.30;99.90;;;;;;6090271;23;20253;-67
2023/04/19 02:19:26;;;;;;;15.27;13.88;;;10.30;99.90;;;;;;6087386;23;20195;-67
2023/04/19 02:21:56;;;;;;;14.35;12.95;;;10.30;99.90;;;;;;6076101;23;20224;-68
2023/04/19 02:24:23;;;;;;;15.13;13.68;;;10.30;99.90;;;;;;6085996;23;20231;-68
2023/04/19 02:26:50;;;;;;;15.18;13.35;;;10.30;99.90;;;;;;6086517;23;20199;-68
2023/04/19 02:29:18;;;;;;;15.23;13.75;;;10.30;99.90;;;;;;6088890;23;20474;-68
2023/04/19 02:31:47;;;;;;;15.18;13.77;;;10.30;99.90;;;;;;6080160;23;20556;-67
2023/04/19 02:34:14;;;;;;;14.80;13.35;;;10.60;99.90;;;;;;6089799;23;20199;-67
2023/04/19 02:36:41;;;;;;;14.82;13.52;;;10.30;99.90;;;;;;6085609;23;20196;-67
2023/04/19 02:39:08;;;;;;;14.57;13.18;;;10.30;99.90;;;;;;6075925;23;20196;-68
2023/04/19 02:41:35;;;;;;;15.07;13.68;;;10.30;99.90;;;;;;6078021;23;20216;-68
2023/04/19 02:44:02;;;;;;;15.63;14.13;;;10.30;99.90;;;;;;6085490;23;20280;-68
2023/04/19 02:46:30;;;;;;;16.33;14.75;;;10.30;99.90;;;;;;6090251;23;20203;-68
2023/04/19 02:49:00;;;;;;;15.85;14.40;;;10.30;99.90;;;;;;6086472;23;20196;-68
2023/04/19 02:51:28;;;;;;;16.35;14.73;;;10.30;99.90;;;;;;6079091;23;20204;-68
2023/04/19 02:53:55;;;;;;;15.88;14.27;;;10.30;99.90;;;;;;6076150;23;20196;-67
2023/04/19 02:56:22;;;;;;;15.38;13.88;;;10.40;99.90;;;;;;6089192;23;20641;-67
2023/04/19 02:58:49;;;;;;;15.70;14.27;;;10.30;99.90;;;;;;6088902;23;20245;-67
2023/04/19 03:01:17;;;;;;;15.75;14.25;;;10.30;99.90;;;;;;6073093;23;20239;-67
2023/04/19 03:03:43;;;;;;;15.93;14.43;;;10.30;99.90;;;;;;6081499;23;20188;-67
2023/04/19 03:06:12;;;;;;;15.90;14.50;;;10.40;99.90;;;;;;6086357;23;20548;-67
2023/04/19 03:08:39;;;;;;;16.92;15.43;;;10.20;99.90;;;;;;6086331;23;20188;-68
2023/04/19 03:11:06;;;;;;;15.02;13.63;;;10.20;99.90;;;;;;6086149;23;21503;-68
2023/04/19 03:13:33;;;;;;;16.13;14.73;;;10.20;99.90;;;;;;6081069;23;20200;-67
2023/04/19 03:16:00;;;;;;;16.02;14.43;;;10.20;99.90;;;;;;6080028;23;20234;-68
2023/04/19 03:18:28;;;;;;;15.27;13.88;;;10.10;99.90;;;;;;6088986;23;20227;-67
2023/04/19 03:20:55;;;;;;;15.25;13.77;;;10.20;99.90;;;;;;6084215;23;20283;-68
2023/04/19 03:23:25;;;;;;;15.75;14.35;;;10.20;99.90;;;;;;6088457;23;20401;-68
2023/04/19 03:25:52;;;;;;;15.07;13.68;;;10.20;99.90;;;;;;6076182;23;20283;-67
2023/04/19 03:28:20;;;;;;;14.15;12.85;;;10.20;99.90;;;;;;6089599;23;20196;-68
2023/04/19 03:30:47;;;;;;;14.75;13.38;;;10.40;99.90;;;;;;6089266;23;20212;-68
2023/04/19 03:33:14;;;;;;;14.32;13.07;;;10.50;99.90;;;;;;6085953;23;20266;-68
2023/04/19 03:35:43;;;;;;;16.17;14.63;;;10.20;99.90;;;;;;6089510;23;20291;-69
2023/04/19 03:38:10;;;;;;;14.80;13.50;;;10.50;99.90;;;;;;6089533;23;20188;-67
2023/04/19 03:40:39;;;;;;;14.98;13.52;;;10.20;99.90;;;;;;6081972;23;20259;-68
2023/04/19 03:43:06;;;;;;;15.07;13.57;;;10.50;99.90;;;;;;6083207;23;20188;-68
2023/04/19 03:45:33;;;;;;;15.32;13.75;;;10.20;99.90;;;;;;6087187;23;20223;-67
2023/04/19 03:48:00;;;;;;;14.23;12.90;;;10.20;99.90;;;;;;6082933;23;20652;-69
2023/04/19 03:50:28;;;;;;;14.07;12.80;;;10.20;99.90;;;;;;6083453;23;20188;-76
2023/04/19 03:52:55;;;;;;;15.43;13.95;;;10.20;99.90;;;;;;6088483;23;20238;-75
2023/04/19 03:55:22;;;;;;;15.60;14.10;;;10.40;99.90;;;;;;6088282;23;20262;-76
2023/04/19 03:57:50;;;;;;;14.15;12.85;;;10.30;99.90;;;;;;6086549;23;20607;-75
2023/04/19 04:00:17;;;;;;;17.75;15.95;;;10.20;99.90;;;;;;6077252;23;20207;-68
2023/04/19 04:02:44;;;;;;;15.77;14.38;;;10.10;99.90;;;;;;6080138;23;20192;-68
2023/04/19 04:05:12;;;;;;;15.38;13.85;;;10.10;99.90;;;;;;6089729;23;20232;-68
2023/04/19 04:07:39;;;;;;;15.60;14.18;;;10.10;99.90;;;;;;6086435;23;20200;-68
2023/04/19 04:10:07;;;;;;;15.93;14.52;;;10.10;99.90;;;;;;6087324;23;20192;-68
2023/04/19 04:12:34;;;;;;;16.10;14.60;;;10.10;99.90;;;;;;6074760;23;20200;-68
2023/04/19 04:15:04;;;;;;;14.90;13.43;;;10.10;99.90;;;;;;6074717;23;20231;-69
2023/04/19 04:17:31;;;;;;;16.05;14.45;;;10.10;99.90;;;;;;6088409;23;20275;-68
2023/04/19 04:19:58;;;;;;;15.88;14.38;;;10.00;99.90;;;;;;6087820;23;20284;-69
2023/04/19 04:22:25;;;;;;;14.40;13.05;;;10.00;99.90;;;;;;6084925;23;20226;-69
2023/04/19 04:24:53;;;;;;;14.90;13.60;;;10.00;99.90;;;;;;6090532;23;20222;-69
2023/04/19 04:27:20;;;;;;;14.35;13.00;;;10.00;99.90;;;;;;6083739;23;20274;-68
2023/04/19 04:29:48;;;;;;;15.10;13.57;;;10.00;99.90;;;;;;6089539;23;20211;-69
2023/04/19 04:32:16;;;;;;;16.17;14.45;;;9.90;99.90;;;;;;6081764;23;20645;-69
2023/04/19 04:34:44;;;;;;;15.98;14.38;;;9.90;99.90;;;;;;6085335;23;20295;-69
2023/04/19 04:37:12;;;;;;;11.75;10.65;;;9.80;99.90;;;;;;6072900;23;20644;-67
2023/04/19 04:39:39;;;;;;;14.75;13.35;;;9.80;99.90;;;;;;6077411;23;20192;-75
2023/04/19 04:42:07;;;;;;;12.80;11.63;;;9.90;99.90;;;;;;6085049;23;20238;-74
2023/04/19 04:44:35;;;;;;;16.08;14.57;;;10.00;99.90;;;;;;6080750;23;20212;-76
2023/04/19 04:47:02;;;;;;;15.10;13.70;;;10.10;99.90;;;;;;6071851;23;20242;-77
2023/04/19 04:49:31;;;;;;;18.13;16.48;;;10.20;99.90;;;;;;6078451;23;20208;-70
2023/04/19 04:51:58;;;;;;;17.13;15.55;;;10.20;99.90;;;;;;6084948;23;20184;-72
2023/04/19 04:54:25;;;;;;;16.38;14.88;;;10.20;99.90;;;;;;6081813;23;20246;-70
2023/04/19 04:56:52;;;;;;;15.93;14.43;;;10.10;99.90;;;;;;6089845;23;20192;-70
2023/04/19 04:59:19;;;;;;;16.80;15.30;;;10.10;99.90;;;;;;6067022;23;20196;-70
2023/04/19 05:01:46;;;;;;;16.67;15.18;;;10.10;99.90;;;;;;6069836;23;20266;-70
2023/04/19 05:04:13;;;;;;;15.27;13.85;;;10.10;99.90;;;;;;6080403;23;20200;-70
2023/04/19 05:06:43;;;;;;;14.95;13.52;;;10.00;99.90;;;;;;6065083;23;20220;-74
2023/04/19 05:09:10;;;;;;;14.00;12.80;;;10.00;99.90;;;;;;6078448;23;20580;-74
2023/04/19 05:11:37;;;;;;;15.20;13.77;;;10.10;99.90;;;;;;6085142;23;20191;-74
2023/04/19 05:14:04;;;;;;;16.02;14.63;;;10.10;99.90;;;;;;6086641;23;20242;-74
2023/04/19 05:16:32;;;;;;;16.00;14.50;;;10.10;99.90;;;;;;6088652;23;20262;-75
2023/04/19 05:18:59;;;;;;;15.15;13.65;;;10.10;99.90;;;;;;6089436;23;20263;-75
2023/04/19 05:21:26;;;;;;;14.98;13.57;;;10.20;99.90;;;;;;6074537;23;20214;-75
2023/04/19 05:23:55;;;;;;;14.30;12.90;;;10.20;99.90;;;;;;6087083;23;20184;-74
2023/04/19 05:26:22;;;;;;;15.73;14.23;;;10.30;99.90;;;;;;6079868;23;20184;-75
2023/04/19 05:28:49;;;;;;;14.98;13.48;;;10.30;99.90;;;;;;6075808;23;20294;-75
2023/04/19 05:31:17;;;;;;;14.90;13.50;;;10.40;99.90;;;;;;6088907;23;20211;-75
2023/04/19 05:33:44;;;;;;;15.18;13.75;;;10.40;99.90;;;;;;6085378;23;20538;-75
2023/04/19 05:36:11;;;;;;;13.70;12.30;;;10.40;99.90;;;;;;6081429;23;20191;-75
2023/04/19 05:38:38;;;;;;;15.63;14.13;;;10.50;99.90;;;;;;6086731;23;20183;-75
2023/04/19 05:41:07;;;;;;;15.88;13.95;;;10.50;99.90;;;;;;6083066;23;20211;-75
2023/04/19 05:43:33;;;;;;;13.85;12.63;;;10.50;99.90;;;;;;6083593;23;20200;-75
2023/04/19 05:46:00;;;;;;;15.10;13.55;;;10.50;99.90;;;;;;6085060;23;20195;-75
2023/04/19 05:48:28;;;;;;;15.82;14.32;;;10.50;99.90;;;;;;6087020;23;20264;-75
2023/04/19 05:50:56;;;;;;;20.48;18.30;;;10.60;99.90;;;;;;6083184;23;20192;-75
2023/04/19 05:53:23;;;;;;;14.85;13.55;;;10.60;99.90;;;;;;6087785;23;20223;-75
2023/04/19 05:55:51;;;;;;;14.60;13.30;;;10.60;99.90;;;;;;6083602;23;20306;-75
2023/04/19 05:58:19;;;;;;;15.85;13.30;;;10.60;99.90;;;;;;6072191;23;20272;-75
2023/04/19 06:00:47;;;;;;;15.30;12.55;;;10.70;99.90;;;;;;6080922;23;20265;-75
2023/04/19 06:03:15;;;;;;;14.48;12.35;;;10.70;99.90;;;;;;6075616;23;20222;-75
2023/04/19 06:05:42;;;;;;;12.95;11.77;;;10.80;99.90;;;;;;6087549;23;20246;-75
2023/04/19 06:08:09;;;;;;;12.65;11.35;;;10.90;99.90;;;;;;6076021;23;20196;-75
2023/04/19 06:10:37;;;;;;;14.02;12.82;;;10.90;99.90;;;;;;6075926;23;20193;-75
2023/04/19 06:13:04;;;;;;;12.38;11.27;;;11.00;99.90;;;;;;6081234;23;20552;-75
2023/04/19 06:15:32;;;;;;;13.70;12.40;;;11.00;99.90;;;;;;6073974;23;20672;-75
2023/04/19 06:17:59;;;;;;;12.68;11.48;;;11.10;99.90;;;;;;6077177;23;20188;-75
2023/04/19 06:20:26;;;;;;;13.25;12.05;;;11.20;99.90;;;;;;6078603;23;20180;-75
2023/04/19 06:22:53;;;;;;;13.05;11.80;;;11.30;99.90;;;;;;6078463;23;20253;-75
2023/04/19 06:25:21;;;;;;;13.02;11.77;;;11.40;99.90;;;;;;6075461;23;20230;-75
2023/04/19 06:27:48;;;;;;;13.20;11.90;;;11.50;99.90;;;;;;6085958;23;20215;-76
2023/04/19 06:30:15;;;;;;;12.13;11.02;;;11.60;99.90;;;;;;6083307;23;20250;-76
2023/04/19 06:32:44;;;;;;;11.77;10.75;;;11.70;99.90;;;;;;6080302;23;20654;-75
2023/04/19 06:35:10;;;;;;;11.90;10.80;;;11.80;99.90;;;;;;6073603;23;20255;-75
2023/04/19 06:37:37;;;;;;;11.40;10.40;;;11.80;99.90;;;;;;6061296;23;20260;-75
2023/04/19 06:40:07;;;;;;;11.43;10.43;;;12.20;99.90;;;;;;6070865;23;20434;-75
2023/04/19 06:42:34;;;;;;;12.13;11.03;;;12.10;99.90;;;;;;6083143;23;20473;-75
2023/04/19 06:45:01;;;;;;;12.53;11.43;;;12.20;99.90;;;;;;6085902;23;20795;-75
2023/04/19 06:47:29;;;;;;;12.73;11.63;;;12.20;99.90;;;;;;6078865;23;20478;-75
2023/04/19 06:49:58;;;;;;;12.47;11.43;;;12.20;99.90;;;;;;6087328;23;20442;-76
2023/04/19 06:52:25;;;;;;;12.27;11.18;;;12.30;99.90;;;;;;6082108;23;20438;-75
2023/04/19 06:54:52;;;;;;;11.40;10.40;;;12.30;99.90;;;;;;6082159;23;20208;-76
2023/04/19 06:57:19;;;;;;;12.60;11.40;;;12.50;99.90;;;;;;6077699;23;20865;-75
2023/04/19 06:59:46;;;;;;;12.27;11.07;;;12.50;99.90;;;;;;6090385;23;20883;-76
2023/04/19 07:02:13;;;;;;;11.20;10.20;;;12.50;99.90;;;;;;6088277;23;20470;-76
2023/04/19 07:04:40;;;;;;;11.73;10.73;;;12.60;99.90;;;;;;6083307;23;20990;-75
2023/04/19 07:07:08;;;;;;;13.07;11.88;;;12.60;99.90;;;;;;6081115;23;20431;-76
2023/04/19 07:09:35;;;;;;;12.50;11.27;;;12.70;99.90;;;;;;6090140;23;20190;-76
2023/04/19 07:12:02;;;;;;;11.37;10.43;;;12.80;99.90;;;;;;6088677;23;20535;-76
2023/04/19 07:14:29;;;;;;;11.80;10.70;;;12.90;99.90;;;;;;6086830;23;20530;-76
2023/04/19 07:16:57;;;;;;;11.60;10.50;;;13.00;99.90;;;;;;6078299;23;20437;-76
2023/04/19 07:19:25;;;;;;;11.97;10.77;;;13.20;99.90;;;;;;6073509;23;20440;-76
2023/04/19 07:21:52;;;;;;;10.70;9.80;;;13.30;99.90;;;;;;6066830;23;20970;-76
2023/04/19 07:24:20;;;;;;;10.93;9.83;;;13.40;99.90;;;;;;6077606;23;20453;-76
2023/04/19 07:26:47;;;;;;;12.20;11.10;;;13.50;99.90;;;;;;6089677;23;20787;-76
2023/04/19 07:29:14;;;;;;;11.27;10.23;;;13.60;99.90;;;;;;6069604;23;20515;-76
2023/04/19 07:31:41;;;;;;;11.43;10.33;;;13.70;99.90;;;;;;6082811;23;20446;-76
2023/04/19 07:34:09;;;;;;;11.17;10.17;;;13.90;99.90;;;;;;6073885;23;20456;-76
2023/04/19 07:36:36;;;;;;;11.30;10.40;;;14.20;99.90;;;;;;6082090;23;20469;-76
2023/04/19 07:39:04;;;;;;;11.17;10.17;;;14.40;99.90;;;;;;6078245;23;20942;-76
2023/04/19 07:41:33;;;;;;;9.80;8.90;;;14.60;99.90;;;;;;6086193;23;20521;-76
2023/04/19 07:44:00;;;;;;;10.53;9.73;;;14.70;99.90;;;;;;6083867;23;20455;-76
2023/04/19 07:46:28;;;;;;;10.23;9.37;;;14.80;99.90;;;;;;6083924;23;20759;-76
2023/04/19 07:48:55;;;;;;;10.93;10.03;;;14.90;99.90;;;;;;6074719;23;20450;-76
2023/04/19 07:51:23;;;;;;;10.90;10.00;;;15.10;99.90;;;;;;6087910;23;20894;-75
2023/04/19 07:53:50;;;;;;;11.03;10.13;;;15.20;99.90;;;;;;6065441;23;20961;-75
2023/04/19 07:56:18;;;;;;;11.90;9.90;;;14.90;99.90;;;;;;6068792;23;20780;-75
2023/04/19 07:58:47;;;;;;;10.73;9.70;;;14.90;99.90;;;;;;6083800;23;20438;-75
2023/04/19 08:01:14;;;;;;;10.60;9.57;;;15.10;99.90;;;;;;6089016;23;20466;-75
2023/04/19 08:03:41;;;;;;;10.50;9.70;;;15.20;99.90;;;;;;6088092;23;20796;-75
2023/04/19 08:06:08;;;;;;;10.40;9.53;;;15.30;99.90;;;;;;6073124;23;20446;-75
2023/04/19 08:08:36;;;;;;;11.00;10.10;;;15.40;99.90;;;;;;6080835;23;20438;-76
2023/04/19 08:11:03;;;;;;;10.63;9.63;;;15.30;99.90;;;;;;6082682;23;20525;-75
2023/04/19 08:13:31;;;;;;;11.50;10.50;;;15.30;99.90;;;;;;6087000;23;20461;-77
2023/04/19 08:15:59;;;;;;;10.60;9.70;;;15.30;99.90;;;;;;6082344;23;20881;-75
2023/04/19 08:18:26;;;;;;;11.03;10.07;;;15.20;99.90;;;;;;6075731;23;20438;-75
2023/04/19 08:20:55;;;;;;;11.20;10.10;;;15.10;99.90;;;;;;6079811;23;20438;-75
2023/04/19 08:23:22;;;;;;;10.90;9.90;;;14.90;99.90;;;;;;6082831;23;20470;-75
2023/04/19 08:25:49;;;;;;;10.63;9.60;;;14.80;99.90;;;;;;6081286;23;20774;-75
2023/04/19 08:28:17;;;;;;;10.10;9.20;;;14.90;99.90;;;;;;6076554;23;20839;-75
2023/04/19 08:30:44;;;;;;;10.20;9.30;;;14.50;99.90;;;;;;6065482;23;20539;-75
2023/04/19 08:33:12;;;;;;;11.10;10.10;;;14.40;99.90;;;;;;6086217;23;20445;-75
2023/04/19 08:35:40;;;;;;;13.60;10.97;;;14.30;99.90;;;;;;6074918;23;20438;-75
2023/04/19 08:38:07;;;;;;;11.57;10.53;;;14.20;99.90;;;;;;6088601;23;20969;-75
2023/04/19 08:40:35;;;;;;;10.37;9.47;;;14.20;99.90;;;;;;6085697;23;20461;-75
2023/04/19 08:43:06;;;;;;;10.00;9.10;;;14.10;99.90;;;;;;6081128;23;21106;-75
2023/04/19 08:45:34;;;;;;;10.17;9.30;;;14.10;99.90;;;;;;6089176;23;20466;-75
2023/04/19 08:48:02;;;;;;;10.23;9.27;;;14.10;99.90;;;;;;6082545;23;20449;-75
2023/04/19 08:50:31;;;;;;;11.20;10.10;;;14.10;99.90;;;;;;6084000;23;20481;-75
2023/04/19 08:53:00;;;;;;;10.37;9.43;;;14.20;99.90;;;;;;6087909;23;20517;-75
2023/04/19 08:55:28;;;;;;;10.30;9.40;;;14.30;99.90;;;;;;6078231;23;20452;-75
2023/04/19 08:57:57;;;;;;;11.43;10.33;;;14.40;99.90;;;;;;6089255;23;20483;-75
2023/04/19 09:00:24;;;;;;;10.83;9.83;;;14.50;99.90;;;;;;6088605;23;20454;-75
2023/04/19 09:02:54;;;;;;;11.17;10.17;;;14.50;99.90;;;;;;6089360;23;20521;-73
2023/04/19 09:05:21;;;;;;;10.33;9.43;;;14.50;99.90;;;;;;6085870;23;20488;-75
2023/04/19 09:07:50;;;;;;;11.93;10.83;;;14.40;99.90;;;;;;6089542;23;20435;-75
2023/04/19 09:10:19;;;;;;;11.80;10.80;;;14.40;99.90;;;;;;6074912;23;20461;-75
2023/04/19 09:13:01;;;;;;;11.60;10.40;;;14.40;99.90;;;;;;6087064;23;20765;-75
2023/04/19 09:15:38;;;;;;;10.03;9.13;;;14.50;99.90;;;;;;6080222;23;20450;-75
2023/04/19 09:18:06;;;;;;;10.67;9.77;;;14.60;99.90;;;;;;6079203;23;20536;-75
2023/04/19 09:20:37;;;;;;;10.77;9.87;;;14.70;99.90;;;;;;6082045;23;20620;-75
2023/04/19 09:23:07;;;;;;;9.93;9.07;;;14.80;99.90;;;;;;6088698;23;20474;-75
2023/04/19 09:25:35;;;;;;;10.27;9.30;;;15.20;99.90;;;;;;6089134;23;20517;-75
2023/04/19 09:28:12;;;;;;;9.60;8.80;;;15.30;99.90;;;;;;6066211;23;20482;-76
2023/04/19 09:30:41;;;;;;;9.80;9.00;;;15.70;99.90;;;;;;6079098;23;20851;-76
2023/04/19 09:33:08;;;;;;;9.80;9.10;;;16.10;99.90;;;;;;6079303;23;20509;-76
2023/04/19 09:35:42;;;;;;;10.00;9.10;;;16.50;99.90;;;;;;6083644;23;20513;-75
2023/04/19 09:38:12;;;;;;;9.57;8.87;;;16.80;99.90;;;;;;6088522;23;20798;-75
2023/04/19 09:40:40;;;;;;;8.77;8.07;;;17.00;99.90;;;;;;6081932;23;20532;-76
2023/04/19 09:43:08;;;;;;;8.43;7.73;;;17.20;99.90;;;;;;6085086;23;20555;-75
2023/04/19 09:45:42;;;;;;;8.73;8.03;;;17.30;99.90;;;;;;6076086;23;20845;-76
2023/04/19 09:48:10;;;;;;;7.97;7.37;;;17.40;99.90;;;;;;6082308;23;20484;-76
2023/04/19 09:50:51;;;;;;;9.63;8.90;;;17.40;99.90;;;;;;6085211;23;20784;-75
2023/04/19 09:53:19;;;;;;;8.83;8.00;;;17.30;99.90;;;;;;6084473;23;20454;-75
2023/04/19 09:55:47;;;;;;;7.70;7.20;;;17.20;99.90;;;;;;6083860;23;20452;-76
2023/04/19 09:58:14;;;;;;;9.07;8.27;;;17.10;99.90;;;;;;6087346;23;20430;-75
2023/04/19 10:00:46;;;;;;;9.80;8.90;;;17.00;99.90;;;;;;6086326;23;20431;-75
2023/04/19 10:03:15;;;;;;;10.00;9.10;;;16.90;99.90;;;;;;6081744;23;20458;-74
2023/04/19 10:05:43;;;;;;;9.57;8.80;;;16.70;99.90;;;;;;6078772;23;20435;-74
2023/04/19 10:08:11;;;;;;;9.80;8.90;;;16.60;99.90;;;;;;6086978;23;20434;-72
2023/04/19 10:10:41;;;;;;;9.40;8.60;;;16.50;99.90;;;;;;6083071;23;20495;-72
2023/04/19 10:13:11;;;;;;;9.70;8.90;;;16.30;99.90;;;;;;6083993;23;20463;-74
2023/04/19 10:15:41;;;;;;;9.00;8.30;;;15.90;99.90;;;;;;6082234;23;20442;-74
2023/04/19 10:18:09;;;;;;;10.40;9.50;;;15.60;99.90;;;;;;6083250;23;20502;-72
2023/04/19 10:20:41;;;;;;;9.37;8.57;;;15.40;99.90;;;;;;6077197;23;20784;-74
2023/04/19 10:23:09;;;;;;;9.80;8.90;;;15.20;99.90;;;;;;6069446;23;20549;-72
2023/04/19 10:25:38;;;;;;;9.90;9.10;;;15.30;99.90;;;;;;6080795;23;20496;-71
2023/04/19 10:28:06;;;;;;;8.53;7.73;;;15.00;99.90;;;;;;6081895;23;20472;-74
2023/04/19 10:30:34;;;;;;;9.10;8.30;;;14.90;99.90;;;;;;6070822;23;20447;-74
2023/04/19 10:33:02;;;;;;;9.10;8.40;;;14.90;99.90;;;;;;6086087;23;20457;-75
2023/04/19 10:35:36;;;;;;;9.57;8.73;;;14.90;99.90;;;;;;6083775;23;20462;-75
2023/04/19 10:38:08;;;;;;;9.57;8.77;;;14.90;99.90;;;;;;6089440;23;20462;-75
2023/04/19 10:40:59;;;;;;;8.93;8.13;;;15.00;99.90;;;;;;6085627;23;20908;-74
2023/04/19 10:43:29;;;;;;;9.20;8.33;;;15.10;99.90;;;;;;6091059;23;20998;-71
2023/04/19 10:46:00;;;;;;;9.50;8.63;;;15.10;99.90;;;;;;6073257;23;20435;-74
2023/04/19 10:48:42;;;;;;;8.90;8.10;;;15.10;99.90;;;;;;6083412;23;20539;-75
2023/04/19 10:51:15;;;;;;;9.60;8.80;;;15.10;99.90;;;;;;6077216;23;20975;-72
2023/04/19 10:53:56;;;;;;;8.83;8.13;;;15.10;99.90;;;;;;6087812;23;20533;-73
2023/04/19 10:56:57;;;;;;;8.47;7.77;;;15.00;99.90;;;;;;6087707;23;20454;-73
2023/04/19 10:59:26;;;;;;;9.80;8.90;;;14.90;99.90;;;;;;6068075;23;20467;-73
2023/04/19 11:01:57;;;;;;;9.50;8.67;;;14.80;99.90;;;;;;6080910;23;20522;-73
2023/04/19 11:05:05;;;;;;;9.27;8.47;;;14.70;99.90;;;;;;6080969;23;20529;-73
2023/04/19 11:07:40;;;;;;;9.93;9.13;;;14.60;99.90;;;;;;6076000;23;21032;-77
2023/04/19 11:10:10;;;;;;;10.00;9.10;;;14.50;99.90;;;;;;6087830;23;20864;-78
2023/04/19 11:12:37;;;;;;;12.00;10.90;;;14.40;99.90;;;;;;6087827;23;20456;-74
2023/04/19 11:15:08;;;;;;;10.70;9.80;;;14.30;99.90;;;;;;6089456;23;20944;-75
2023/04/19 11:17:37;;;;;;;12.13;11.03;;;14.20;99.90;;;;;;6087189;23;20452;-74
2023/04/19 11:20:07;;;;;;;11.30;10.30;;;14.10;99.90;;;;;;6088909;23;20440;-75
2023/04/19 11:22:35;;;;;;;12.77;11.57;;;14.10;99.90;;;;;;6086238;23;20452;-74
2023/04/19 11:25:10;;;;;;;13.20;12.00;;;13.90;99.90;;;;;;6088656;23;20470;-73
2023/04/19 11:27:38;;;;;;;12.60;11.60;;;13.80;99.90;;;;;;6082907;23;20967;-72
2023/04/19 11:30:10;;;;;;;12.87;11.83;;;13.70;99.90;;;;;;6085871;23;20934;-74
2023/04/19 11:32:37;;;;;;;13.47;12.27;;;13.50;99.90;;;;;;6081703;23;20943;-74
2023/04/19 11:35:06;;;;;;;13.13;11.93;;;13.40;99.90;;;;;;6081284;23;20849;-73
2023/04/19 11:37:34;;;;;;;13.07;11.83;;;13.30;99.90;;;;;;6085310;23;20465;-74
2023/04/19 11:40:01;;;;;;;15.17;13.57;;;13.20;99.90;;;;;;6087858;23;20429;-75
2023/04/19 11:42:28;;;;;;;13.60;12.40;;;13.20;99.90;;;;;;6089865;23;20433;-74
2023/04/19 11:44:57;;;;;;;13.30;12.17;;;13.40;99.90;;;;;;6090507;23;20470;-69
2023/04/19 11:47:25;;;;;;;12.87;11.80;;;13.10;99.90;;;;;;6085264;23;20935;-72
2023/04/19 11:49:55;;;;;;;14.53;13.23;;;13.10;99.90;;;;;;6086665;23;20434;-72
2023/04/19 11:52:23;;;;;;;15.30;13.87;;;13.20;99.90;;;;;;6079378;23;20518;-72
2023/04/19 11:54:51;;;;;;;15.53;14.10;;;13.00;99.90;;;;;;6090254;23;20440;-80
2023/04/19 11:57:28;;;;;;;14.77;13.57;;;12.90;99.90;;;;;;6089108;23;21014;-73
2023/04/19 12:00:10;;;;;;;14.50;13.20;;;12.80;99.90;;;;;;6085950;23;20784;-73
2023/04/19 12:02:39;;;;;;;16.30;14.87;;;12.70;99.90;;;;;;6083705;23;21055;-71
2023/04/19 12:05:08;;;;;;;16.70;15.00;;;12.60;99.90;;;;;;6070342;23;20485;-76
2023/04/19 12:07:35;;;;;;;16.07;14.67;;;12.50;99.90;;;;;;6086095;23;20954;-70
2023/04/19 12:10:10;;;;;;;15.57;14.10;;;12.40;99.90;;;;;;6090125;23;20930;-71
2023/04/19 12:12:37;;;;;;;14.15;12.95;;;12.30;99.90;;;;;;6089135;23;20333;-70
2023/04/19 12:15:05;;;;;;;15.18;13.80;;;12.20;99.90;;;;;;6086721;23;20556;-73
2023/04/19 12:17:32;;;;;;;15.23;13.93;;;12.10;99.90;;;;;;6081240;23;20232;-71
2023/04/19 12:20:01;;;;;;;15.20;13.70;;;12.10;99.90;;;;;;6089153;23;20180;-71
2023/04/19 12:22:27;;;;;;;15.63;14.13;;;12.00;99.90;;;;;;6081630;23;20290;-71
2023/04/19 12:24:55;;;;;;;15.52;14.00;;;12.00;99.90;;;;;;6093521;23;20258;-71
2023/04/19 12:27:22;;;;;;;14.60;13.20;;;12.00;99.90;;;;;;6077282;23;20264;-77
2023/04/19 12:29:49;;;;;;;15.88;14.40;;;12.00;99.90;;;;;;6076217;23;20874;-71
2023/04/19 12:32:16;;;;;;;14.27;12.98;;;11.90;99.90;;;;;;6069096;23;20546;-70
2023/04/19 12:34:44;;;;;;;15.40;13.88;;;11.90;99.90;;;;;;6061296;23;20243;-71
2023/04/19 12:37:13;;;;;;;15.35;13.90;;;12.20;99.90;;;;;;6070132;23;20195;-71